createdAt,value
2017-12-01T04:32:32.984Z,13.25
2017-12-01T04:35:00.561Z,12.70
2017-12-01T04:37:28.909Z,13.07
2017-12-01T04:39:56.546Z,12.95
2017-12-01T04:42:24.130Z,13.60
2017-12-01T04:44:51.711Z,12.52
2017-12-01T04:47:19.370Z,14.75
2017-12-01T04:49:46.958Z,15.35
2017-12-01T04:52:14.546Z,13.65
2017-12-01T04:54:42.177Z,13.65
2017-12-01T04:57:09.757Z,15.57
2017-12-01T04:59:37.377Z,14.05
2017-12-01T05:02:05.804Z,15.63
2017-12-01T05:04:33.389Z,16.05
2017-12-01T05:07:01.013Z,14.48
2017-12-01T05:09:28.585Z,14.95
2017-12-01T05:11:56.169Z,14.52
2017-12-01T05:14:23.793Z,15.32
2017-12-01T05:16:51.373Z,14.85
2017-12-01T05:19:18.953Z,14.68
2017-12-01T05:21:46.585Z,15.10
2017-12-01T05:24:14.165Z,16.40
2017-12-01T05:26:41.746Z,14.25
2017-12-01T05:29:10.143Z,13.95
2017-12-01T05:31:37.727Z,15.00
2017-12-01T05:34:05.309Z,13.52
2017-12-01T05:36:32.922Z,14.77
2017-12-01T05:39:00.514Z,14.27
2017-12-01T05:41:28.152Z,16.62
2017-12-01T05:43:55.739Z,15.73
2017-12-01T05:46:23.321Z,17.30
2017-12-01T05:48:51.097Z,17.35
2017-12-01T05:51:19.450Z,16.85
2017-12-01T05:53:47.034Z,16.30
2017-12-01T05:56:15.439Z,15.27
2017-12-01T05:58:43.017Z,15.93
2017-12-01T06:01:10.598Z,16.85
2017-12-01T06:03:38.217Z,16.25
2017-12-01T06:06:05.801Z,13.82
2017-12-01T06:08:33.380Z,16.40
2017-12-01T06:11:01.006Z,15.55
2017-12-01T06:13:28.680Z,17.98
2017-12-01T06:15:56.260Z,17.23
2017-12-01T06:18:23.873Z,15.65
2017-12-01T06:20:51.461Z,17.15
2017-12-01T06:23:19.077Z,16.45
2017-12-01T06:25:46.661Z,16.50
2017-12-01T06:28:14.250Z,16.45
2017-12-01T06:30:41.889Z,17.30
2017-12-01T06:33:09.472Z,16.55
2017-12-01T06:35:37.822Z,16.80
2017-12-01T06:38:05.450Z,16.83
2017-12-01T06:40:33.039Z,15.70
2017-12-01T06:43:00.666Z,15.90
2017-12-01T06:45:28.330Z,16.90
2017-12-01T06:47:55.913Z,16.15
2017-12-01T06:50:23.494Z,15.07
2017-12-01T06:52:51.138Z,15.98
2017-12-01T06:55:18.723Z,14.60
2017-12-01T06:57:46.315Z,15.63
2017-12-01T07:00:14.721Z,14.98
2017-12-01T07:02:42.305Z,14.73
2017-12-01T07:05:09.894Z,15.00
2017-12-01T07:07:37.523Z,14.00
2017-12-01T07:10:05.570Z,15.25
2017-12-01T07:12:33.155Z,14.45
2017-12-01T07:15:00.757Z,15.73
2017-12-01T07:17:29.106Z,14.80
2017-12-01T07:19:56.733Z,14.15
2017-12-01T07:22:24.323Z,16.50
2017-12-01T07:24:51.909Z,14.65
2017-12-01T07:27:20.313Z,14.45
2017-12-01T07:29:47.897Z,16.98
2017-12-01T07:32:15.484Z,15.85
2017-12-01T07:34:43.088Z,16.25
2017-12-01T07:37:10.679Z,20.88
2017-12-01T07:39:38.269Z,19.65
2017-12-01T07:42:05.893Z,20.12
2017-12-01T07:44:48.356Z,18.40
2017-12-01T07:47:16.766Z,19.40
2017-12-01T07:49:44.354Z,19.45
2017-12-01T07:52:11.934Z,17.90
2017-12-01T07:54:40.326Z,17.42
2017-12-01T07:57:11.409Z,16.05
2017-12-01T07:59:38.993Z,19.90
2017-12-01T08:02:06.646Z,23.52
2017-12-01T08:04:34.230Z,24.48
2017-12-01T08:07:02.586Z,22.95
2017-12-01T08:09:30.246Z,24.23
2017-12-01T08:11:57.798Z,22.23
2017-12-01T08:14:25.418Z,21.52
2017-12-01T08:17:04.874Z,19.35
2017-12-01T08:19:32.458Z,17.58
2017-12-01T08:22:11.997Z,18.98
2017-12-01T08:24:51.511Z,17.10
2017-12-01T08:27:19.138Z,19.60
2017-12-01T08:29:46.716Z,18.50
2017-12-01T08:32:14.301Z,16.48
2017-12-01T08:34:42.112Z,18.80
2017-12-01T08:37:10.466Z,18.80
2017-12-01T08:39:38.829Z,19.45
2017-12-01T08:42:06.462Z,19.33
2017-12-01T08:44:34.050Z,18.73
2017-12-01T08:47:01.639Z,20.42
2017-12-01T08:49:30.010Z,17.98
2017-12-01T08:51:58.361Z,17.98
2017-12-01T08:54:25.942Z,20.88
2017-12-01T08:56:54.330Z,24.10
2017-12-01T08:59:22.677Z,24.17
2017-12-01T09:01:50.257Z,26.55
2017-12-01T09:04:18.650Z,27.10
2017-12-01T09:06:46.997Z,21.23
2017-12-01T09:09:16.085Z,30.17
2017-12-01T09:11:45.222Z,25.95
2017-12-01T09:14:12.810Z,24.15
2017-12-01T09:16:40.472Z,25.12
2017-12-01T09:19:08.185Z,24.75
2017-12-01T09:21:36.535Z,23.95
2017-12-01T09:24:04.118Z,24.80
2017-12-01T09:26:32.493Z,23.62
2017-12-01T09:29:00.846Z,26.30
2017-12-01T09:31:28.433Z,23.52
2017-12-01T09:33:56.828Z,26.45
2017-12-01T09:36:24.414Z,26.40
2017-12-01T09:38:52.014Z,29.35
2017-12-01T09:41:20.405Z,29.60
2017-12-01T09:43:48.749Z,30.73
2017-12-01T09:46:16.336Z,28.50
2017-12-01T09:48:44.720Z,27.52
2017-12-01T09:51:13.071Z,28.38
2017-12-01T09:53:40.661Z,28.17
2017-12-01T09:56:09.050Z,26.92
2017-12-01T09:58:37.393Z,24.35
2017-12-01T10:01:04.970Z,24.37
2017-12-01T10:03:33.361Z,19.87
2017-12-01T10:06:00.937Z,20.48
2017-12-01T10:08:28.517Z,20.73
2017-12-01T10:10:56.169Z,22.05
2017-12-01T10:13:23.752Z,23.17
2017-12-01T10:15:52.841Z,24.12
2017-12-01T10:18:20.475Z,23.75
2017-12-01T10:20:48.255Z,21.95
2017-12-01T10:23:15.839Z,21.85
2017-12-01T10:25:43.450Z,22.90
2017-12-01T10:28:11.030Z,21.12
2017-12-01T10:30:38.609Z,19.75
2017-12-01T10:33:06.225Z,20.77
2017-12-01T10:35:33.823Z,21.17
2017-12-01T10:38:01.406Z,20.58
2017-12-01T10:40:29.773Z,20.12
2017-12-01T10:42:57.357Z,20.75
2017-12-01T10:45:25.753Z,21.35
2017-12-01T10:47:53.330Z,20.23
2017-12-01T10:50:20.917Z,22.55
2017-12-01T10:52:48.549Z,19.65
2017-12-01T10:55:16.129Z,21.62
2017-12-01T10:57:43.710Z,20.23
2017-12-01T11:00:11.312Z,21.30
2017-12-01T11:02:38.894Z,23.62
2017-12-01T11:05:06.473Z,17.67
2017-12-01T11:07:34.257Z,20.15
2017-12-01T11:10:02.597Z,21.87
2017-12-01T11:12:30.184Z,17.25
2017-12-01T11:14:57.821Z,17.62
2017-12-01T11:17:25.401Z,18.70
2017-12-01T11:19:52.981Z,16.85
2017-12-01T11:22:21.417Z,16.85
2017-12-01T11:24:49.002Z,16.37
2017-12-01T11:27:17.345Z,17.83
2017-12-01T11:29:44.988Z,19.15
2017-12-01T11:32:12.562Z,20.95
2017-12-01T11:34:40.150Z,19.58
2017-12-01T11:37:07.762Z,19.10
2017-12-01T11:39:35.341Z,21.30
2017-12-01T11:42:02.919Z,20.55
2017-12-01T11:44:30.521Z,20.37
2017-12-01T11:46:58.103Z,22.33
2017-12-01T11:49:25.717Z,20.55
2017-12-01T11:51:54.061Z,19.83
2017-12-01T11:54:21.641Z,20.98
2017-12-01T11:56:50.010Z,23.33
2017-12-01T11:59:17.583Z,24.27
2017-12-01T12:01:45.929Z,23.33
2017-12-01T12:04:13.558Z,23.58
2017-12-01T12:06:41.137Z,19.02
2017-12-01T12:09:08.787Z,20.02
2017-12-01T12:11:36.393Z,19.33
2017-12-01T12:14:04.737Z,18.05
2017-12-01T12:16:32.323Z,15.70
2017-12-01T12:18:59.929Z,11.73
2017-12-01T12:21:27.511Z,9.10
2017-12-01T12:23:55.093Z,11.55
2017-12-01T12:26:22.699Z,13.70
2017-12-01T12:28:50.281Z,13.68
2017-12-01T12:31:17.910Z,11.85
2017-12-01T12:33:45.485Z,9.55
2017-12-01T12:36:13.062Z,9.63
2017-12-01T12:38:40.699Z,12.10
2017-12-01T12:41:08.281Z,12.25
2017-12-01T12:43:35.865Z,15.35
2017-12-01T12:46:03.492Z,16.92
2017-12-01T12:48:31.073Z,17.35
2017-12-01T12:50:59.424Z,14.85
2017-12-01T12:53:27.053Z,17.65
2017-12-01T12:55:54.638Z,18.58
2017-12-01T12:58:22.217Z,18.45
2017-12-01T13:00:49.825Z,20.65
2017-12-01T13:03:17.413Z,19.10
2017-12-01T13:05:45.001Z,19.33
2017-12-01T13:08:12.625Z,14.70
2017-12-01T13:10:40.245Z,11.48
2017-12-01T13:13:07.825Z,11.60
2017-12-01T13:15:35.469Z,14.13
2017-12-01T13:18:03.822Z,16.90
2017-12-01T13:20:31.396Z,12.60
2017-12-01T13:22:59.026Z,13.10
2017-12-01T13:25:26.608Z,7.35
2017-12-01T13:27:54.229Z,6.43
2017-12-01T13:30:21.832Z,9.00
2017-12-01T13:32:49.410Z,10.20
2017-12-01T13:35:16.995Z,8.82
2017-12-01T13:37:44.614Z,9.88
2017-12-01T13:40:12.953Z,9.55
2017-12-01T13:42:40.574Z,8.25
2017-12-01T13:45:08.196Z,7.70
2017-12-01T13:47:35.780Z,10.60
2017-12-01T13:50:04.133Z,11.20
2017-12-01T13:52:31.772Z,11.75
2017-12-01T13:54:59.346Z,10.65
2017-12-01T13:57:26.929Z,11.07
2017-12-01T13:59:55.313Z,9.30
2017-12-01T14:02:23.665Z,8.15
2017-12-01T14:04:51.245Z,6.68
2017-12-01T14:07:19.606Z,8.07
2017-12-01T14:09:47.958Z,7.03
2017-12-01T14:12:15.562Z,7.57
2017-12-01T14:14:43.901Z,7.55
2017-12-01T14:17:12.985Z,9.68
2017-12-01T14:19:40.615Z,7.90
2017-12-01T14:22:08.194Z,7.93
2017-12-01T14:24:35.765Z,7.22
2017-12-01T14:27:03.558Z,7.68
2017-12-01T14:29:31.901Z,8.07
2017-12-01T14:31:59.478Z,8.30
2017-12-01T14:34:27.105Z,8.63
2017-12-01T14:36:54.685Z,10.25
2017-12-01T14:39:22.262Z,9.07
2017-12-01T14:41:49.881Z,10.07
2017-12-01T14:44:17.462Z,10.95
2017-12-01T14:46:45.042Z,12.55
2017-12-01T14:49:12.657Z,13.15
2017-12-01T14:51:40.245Z,12.52
2017-12-01T14:54:07.846Z,12.82
2017-12-01T14:56:35.473Z,14.65
2017-12-01T14:59:03.049Z,14.10
2017-12-01T15:01:31.402Z,15.90
2017-12-01T15:03:59.018Z,17.92
2017-12-01T15:06:26.597Z,20.45
2017-12-01T15:08:54.206Z,19.85
2017-12-01T15:11:22.549Z,20.15
2017-12-01T15:13:50.133Z,19.92
2017-12-01T15:16:18.509Z,20.48
2017-12-01T15:18:46.853Z,21.20
2017-12-01T15:21:15.301Z,20.05
2017-12-01T15:23:42.919Z,20.00
2017-12-01T15:26:11.269Z,22.77
2017-12-01T15:28:38.850Z,20.98
2017-12-01T15:31:06.457Z,23.17
2017-12-01T15:33:34.037Z,22.13
2017-12-01T15:36:01.653Z,25.92
2017-12-01T15:38:29.997Z,26.10
2017-12-01T15:40:57.586Z,22.25
2017-12-01T15:43:25.973Z,21.20
2017-12-01T15:45:53.553Z,22.02
2017-12-01T15:48:21.133Z,22.77
2017-12-01T15:50:48.813Z,22.77
2017-12-01T15:53:17.155Z,20.52
2017-12-01T15:55:44.737Z,20.42
2017-12-01T15:58:13.873Z,20.25
2017-12-01T16:00:41.466Z,18.73
2017-12-01T16:03:09.049Z,20.45
2017-12-01T16:05:36.689Z,20.98
2017-12-01T16:08:04.265Z,22.70
2017-12-01T16:10:31.845Z,18.80
2017-12-01T16:12:59.461Z,19.02
2017-12-01T16:15:27.040Z,17.80
2017-12-01T16:17:54.636Z,18.42
2017-12-01T16:20:22.253Z,17.35
2017-12-01T16:22:49.841Z,17.87
2017-12-01T16:25:17.481Z,20.15
2017-12-01T16:27:45.064Z,19.05
2017-12-01T16:30:13.413Z,18.05
2017-12-01T16:32:42.485Z,18.45
2017-12-01T16:35:08.663Z,18.02
2017-12-01T16:37:37.013Z,18.75
2017-12-01T16:40:04.638Z,25.30
2017-12-01T16:42:32.221Z,28.55
2017-12-01T16:44:59.953Z,33.63
2017-12-01T16:47:27.579Z,33.88
2017-12-01T16:49:55.928Z,18.87
2017-12-01T16:52:23.514Z,16.02
2017-12-01T16:54:51.897Z,18.90
2017-12-01T16:57:20.245Z,20.30
2017-12-01T16:59:48.600Z,19.92
2017-12-01T17:02:16.234Z,16.70
2017-12-01T17:04:43.823Z,16.10
2017-12-01T17:07:11.413Z,16.45
2017-12-01T17:09:39.089Z,15.60
2017-12-01T17:12:07.526Z,16.80
2017-12-01T17:14:35.118Z,15.88
2017-12-01T17:17:04.497Z,15.82
2017-12-01T17:19:33.589Z,16.33
2017-12-01T17:22:01.178Z,19.80
2017-12-01T17:24:29.548Z,15.70
2017-12-01T17:26:57.906Z,15.30
2017-12-01T17:29:26.267Z,16.30
2017-12-01T17:31:53.898Z,15.95
2017-12-01T17:34:21.495Z,16.15
2017-12-01T17:36:50.011Z,16.30
2017-12-01T17:39:18.432Z,18.33
2017-12-01T17:41:46.017Z,18.30
2017-12-01T17:44:14.585Z,18.80
2017-12-01T17:46:42.175Z,17.00
2017-12-01T17:49:10.541Z,21.05
2017-12-01T17:51:38.273Z,19.23
2017-12-01T17:54:05.864Z,19.37
2017-12-01T17:56:33.450Z,18.50
2017-12-01T17:59:01.842Z,21.15
2017-12-01T18:01:29.425Z,21.70
2017-12-01T18:03:57.020Z,21.45
2017-12-01T18:06:24.642Z,23.92
2017-12-01T18:08:52.229Z,25.98
2017-12-01T18:11:19.810Z,29.00
2017-12-01T18:13:48.178Z,26.12
2017-12-01T18:16:16.763Z,26.52
2017-12-01T18:18:44.373Z,28.98
2017-12-01T18:21:11.949Z,28.65
2017-12-01T18:23:39.529Z,31.12
2017-12-01T18:26:07.133Z,32.30
2017-12-01T18:28:34.717Z,35.03
2017-12-01T18:31:02.359Z,29.48
2017-12-01T18:33:29.950Z,32.90
2017-12-01T18:35:57.533Z,29.77
2017-12-01T18:38:25.165Z,28.38
2017-12-01T18:40:52.752Z,29.30
2017-12-01T18:43:20.338Z,27.73
2017-12-01T18:45:48.030Z,26.95
2017-12-01T18:48:15.612Z,43.22
2017-12-01T18:50:43.198Z,33.05
2017-12-01T18:53:11.566Z,30.15
2017-12-01T18:55:39.145Z,28.42
2017-12-01T18:58:07.489Z,33.88
2017-12-01T19:00:35.133Z,34.90
2017-12-01T19:03:02.715Z,29.63
2017-12-01T19:05:30.297Z,31.75
2017-12-01T19:07:58.748Z,29.83
2017-12-01T19:10:26.297Z,31.30
2017-12-01T19:12:53.877Z,32.17
2017-12-01T19:15:21.605Z,31.10
2017-12-01T19:17:49.184Z,35.13
2017-12-01T19:20:16.769Z,35.50
2017-12-01T19:22:45.138Z,37.42
2017-12-01T19:25:13.485Z,37.30
2017-12-01T19:27:41.062Z,36.08
2017-12-01T19:30:08.701Z,33.67
2017-12-01T19:32:36.285Z,33.85
2017-12-01T19:35:03.861Z,36.70
2017-12-01T19:37:32.257Z,36.40
2017-12-01T19:39:59.846Z,33.70
2017-12-01T19:42:27.437Z,31.67
2017-12-01T19:44:55.830Z,30.27
2017-12-01T19:47:24.182Z,31.75
2017-12-01T19:49:51.773Z,27.00
2017-12-01T19:52:20.137Z,30.88
2017-12-01T19:54:48.481Z,28.70
2017-12-01T19:57:16.106Z,27.02
2017-12-01T19:59:43.680Z,27.98
2017-12-01T20:02:11.260Z,37.97
2017-12-01T20:04:38.885Z,44.22
2017-12-01T20:07:06.467Z,31.87
2017-12-01T20:09:34.062Z,24.70
2017-12-01T20:12:01.705Z,28.85
2017-12-01T20:14:29.337Z,27.90
2017-12-01T20:16:57.133Z,26.50
2017-12-01T20:19:25.525Z,27.42
2017-12-01T20:21:53.106Z,26.75
2017-12-01T20:24:20.694Z,28.95
2017-12-01T20:26:48.299Z,26.10
2017-12-01T20:29:15.877Z,23.42
2017-12-01T20:31:44.286Z,17.70
2017-12-01T20:34:11.868Z,18.25
2017-12-01T20:36:39.459Z,18.02
2017-12-01T20:39:07.843Z,16.75
2017-12-01T20:41:36.189Z,16.92
2017-12-01T20:44:05.278Z,18.73
2017-12-01T20:46:32.897Z,21.85
2017-12-01T20:49:00.482Z,19.30
2017-12-01T20:51:28.061Z,18.35
2017-12-01T20:53:56.449Z,18.42
2017-12-01T20:56:24.033Z,15.80
2017-12-01T20:58:52.377Z,16.77
2017-12-01T21:01:20.773Z,18.45
2017-12-01T21:03:49.315Z,20.27
2017-12-01T21:06:16.897Z,16.60
2017-12-01T21:08:44.506Z,17.10
2017-12-01T21:11:12.078Z,15.40
2017-12-01T21:13:39.665Z,17.10
2017-12-01T21:16:07.270Z,18.08
2017-12-01T21:18:34.849Z,19.42
2017-12-01T21:21:02.462Z,20.08
2017-12-01T21:23:30.809Z,18.65
2017-12-01T21:25:58.389Z,17.15
2017-12-01T21:28:28.233Z,17.90
2017-12-01T21:30:55.810Z,19.12
2017-12-01T21:33:23.390Z,17.10
2017-12-01T21:35:50.998Z,17.20
2017-12-01T21:38:19.336Z,17.23
2017-12-01T21:40:46.953Z,16.80
2017-12-01T21:43:14.642Z,18.17
2017-12-01T21:45:42.225Z,19.70
2017-12-01T21:48:11.367Z,18.90
2017-12-01T21:50:38.957Z,17.75
2017-12-01T21:53:06.533Z,19.17
2017-12-01T21:55:34.151Z,16.23
2017-12-01T21:58:01.725Z,17.10
2017-12-01T22:00:29.310Z,12.75
2017-12-01T22:02:56.935Z,12.05
2017-12-01T22:05:24.517Z,10.18
2017-12-01T22:07:52.118Z,22.98
2017-12-01T22:10:20.546Z,11.10
2017-12-01T22:12:48.121Z,8.65
2017-12-01T22:15:15.770Z,11.85
2017-12-01T22:17:43.401Z,8.57
2017-12-01T22:20:10.991Z,10.43
2017-12-01T22:22:38.577Z,12.95
2017-12-01T22:25:06.182Z,11.52
2017-12-01T22:27:33.760Z,8.20
2017-12-01T22:30:01.422Z,7.60
2017-12-01T22:32:29.005Z,7.87
2017-12-01T22:34:56.585Z,6.93
2017-12-01T22:37:24.974Z,6.95
2017-12-01T22:39:53.326Z,7.45
2017-12-01T22:42:20.918Z,8.52
2017-12-01T22:44:48.522Z,8.77
2017-12-01T22:47:16.106Z,12.18
2017-12-01T22:49:43.735Z,16.17
2017-12-01T22:52:11.321Z,16.52
2017-12-01T22:54:39.669Z,17.40
2017-12-01T22:57:07.297Z,14.30
2017-12-01T22:59:34.876Z,11.43
2017-12-01T23:02:02.449Z,8.75
2017-12-01T23:04:30.053Z,10.45
2017-12-01T23:06:58.394Z,12.32
2017-12-01T23:09:26.135Z,11.65
2017-12-01T23:11:53.721Z,12.27
2017-12-01T23:14:21.306Z,10.13
2017-12-01T23:16:49.690Z,9.93
2017-12-01T23:19:18.034Z,9.10
2017-12-01T23:21:47.122Z,9.77
2017-12-01T23:24:14.717Z,9.27
2017-12-01T23:26:43.058Z,9.85
2017-12-01T23:29:10.642Z,10.40
